Terminal Aerodrome Forecast
Issued by NWS Jackson, KY

Home | Current Version | Previous Version | Text Only | Print | Product List | Glossary On
Versions: 1 2 3 4 5 6 7 8 9 10 11 12 13 14 15
510
FTUS43 KJKL 251120
TAFLOZ
TAF
KLOZ 251120Z 2512/2612 23008KT P6SM VCSH OVC015
     FM251600 24014G20KT 3SM -SHRA OVC010
     FM251800 25014G20KT 3SM SHRA OVC008
     FM260000 27009KT P6SM VCSH OVC045
     FM260200 26005KT P6SM BKN060=

USA.gov is the U.S. government's official web portal to all federal, state and local government web resources and services.